createdAt,value
2023-05-22T00:01:04.846Z,98.70
2023-05-22T00:03:33.168Z,98.70
2023-05-22T00:06:02.762Z,98.70
2023-05-22T00:08:31.003Z,98.70
2023-05-22T00:10:59.057Z,98.50
2023-05-22T00:13:27.058Z,98.70
2023-05-22T00:15:55.050Z,98.70
2023-05-22T00:18:23.173Z,98.50
2023-05-22T00:20:51.865Z,98.50
2023-05-22T00:23:21.888Z,98.60
2023-05-22T00:25:50.714Z,98.50
2023-05-22T00:28:18.727Z,98.40
2023-05-22T00:30:46.719Z,98.50
2023-05-22T00:33:14.740Z,98.60
2023-05-22T00:35:42.732Z,99.00
2023-05-22T00:38:10.737Z,99.00
2023-05-22T00:40:40.472Z,98.80
2023-05-22T00:43:09.297Z,98.70
2023-05-22T00:45:37.298Z,98.70
2023-05-22T00:48:06.029Z,98.70
2023-05-22T00:50:34.081Z,98.60
2023-05-22T00:53:03.091Z,98.60
2023-05-22T00:55:31.237Z,98.70
2023-05-22T00:58:01.005Z,98.60
2023-05-22T01:00:29.384Z,98.70
2023-05-22T01:02:57.953Z,98.70
2023-05-22T01:05:26.709Z,98.90
2023-05-22T01:07:54.763Z,98.20
2023-05-22T01:10:22.862Z,98.20
2023-05-22T01:13:01.929Z,98.30
2023-05-22T01:15:41.001Z,98.50
2023-05-22T01:18:19.528Z,98.40
2023-05-22T01:20:58.195Z,98.50
2023-05-22T01:23:59.104Z,98.60
2023-05-22T01:26:41.667Z,98.70
2023-05-22T01:29:38.260Z,98.70
2023-05-22T01:32:10.646Z,98.70
2023-05-22T01:34:41.552Z,98.80
2023-05-22T01:37:11.232Z,98.80
2023-05-22T01:39:40.031Z,99.10
2023-05-22T01:42:09.089Z,98.80
2023-05-22T01:44:37.049Z,99.00
2023-05-22T01:47:06.034Z,98.70
2023-05-22T01:49:36.571Z,98.90
2023-05-22T01:52:16.030Z,98.60
2023-05-22T01:54:52.714Z,98.80
2023-05-22T01:57:28.384Z,98.70
2023-05-22T02:00:07.279Z,98.80
2023-05-22T02:02:36.960Z,98.90
2023-05-22T02:05:07.700Z,99.00
2023-05-22T02:07:39.327Z,99.00
2023-05-22T02:10:10.881Z,99.90
2023-05-22T02:12:39.134Z,99.70
2023-05-22T02:15:09.172Z,99.90
2023-05-22T02:17:40.812Z,99.90
2023-05-22T02:20:14.272Z,99.90
2023-05-22T02:22:43.867Z,99.90
2023-05-22T02:25:14.469Z,99.90
2023-05-22T02:27:43.697Z,99.90
2023-05-22T02:30:12.225Z,99.90
2023-05-22T02:32:40.780Z,99.90
2023-05-22T02:35:11.162Z,99.70
2023-05-22T02:37:39.723Z,99.90
2023-05-22T02:40:10.261Z,99.90
2023-05-22T02:42:38.297Z,99.90
2023-05-22T02:45:07.380Z,99.80
2023-05-22T02:47:35.396Z,99.90
2023-05-22T02:50:03.739Z,99.90
2023-05-22T02:52:33.283Z,99.90
2023-05-22T02:55:01.304Z,99.90
2023-05-22T02:57:29.356Z,99.90
2023-05-22T02:59:57.744Z,99.90
2023-05-22T03:02:26.804Z,99.90
2023-05-22T03:04:55.279Z,99.90
2023-05-22T03:07:26.281Z,99.90
2023-05-22T03:09:55.697Z,99.90
2023-05-22T03:12:23.890Z,99.90
2023-05-22T03:14:51.894Z,99.90
2023-05-22T03:17:19.884Z,99.90
2023-05-22T03:19:47.939Z,99.90
2023-05-22T03:22:15.964Z,99.90
2023-05-22T03:24:43.945Z,99.90
2023-05-22T03:27:15.369Z,99.90
2023-05-22T03:29:43.334Z,99.90
2023-05-22T03:32:11.380Z,99.90
2023-05-22T03:34:39.391Z,99.90
2023-05-22T03:37:08.988Z,99.90
2023-05-22T03:39:37.007Z,99.90
2023-05-22T03:42:05.663Z,99.90
2023-05-22T03:44:35.124Z,99.90
2023-05-22T03:47:03.259Z,99.90
2023-05-22T03:49:31.464Z,99.90
2023-05-22T03:51:59.634Z,99.90
2023-05-22T03:54:27.627Z,99.90
2023-05-22T03:56:55.660Z,99.90
2023-05-22T03:59:24.192Z,99.90
2023-05-22T04:01:53.698Z,99.90
2023-05-22T04:04:21.999Z,99.90
2023-05-22T04:06:52.072Z,99.90
2023-05-22T04:09:20.522Z,99.90
2023-05-22T04:11:48.695Z,99.90
2023-05-22T04:14:16.699Z,99.90
2023-05-22T04:16:44.767Z,99.90
2023-05-22T04:19:14.197Z,99.90
2023-05-22T04:21:44.060Z,99.90
2023-05-22T04:24:12.283Z,99.90
2023-05-22T04:26:42.475Z,99.90
2023-05-22T04:29:14.478Z,99.90
2023-05-22T04:31:42.879Z,99.90
2023-05-22T04:34:16.154Z,99.90
2023-05-22T04:36:46.965Z,99.90
2023-05-22T04:39:15.952Z,99.90
2023-05-22T04:41:44.360Z,99.90
2023-05-22T04:44:12.448Z,99.90
2023-05-22T04:46:40.647Z,99.90
2023-05-22T04:49:08.661Z,99.90
2023-05-22T04:51:38.028Z,99.90
2023-05-22T04:54:06.190Z,99.90
2023-05-22T04:56:37.013Z,99.90
2023-05-22T04:59:08.763Z,99.90
2023-05-22T05:01:37.955Z,99.90
2023-05-22T05:04:06.524Z,99.90
2023-05-22T05:06:35.891Z,99.90
2023-05-22T05:09:05.573Z,99.90
2023-05-22T05:11:33.847Z,99.90
2023-05-22T05:14:01.890Z,99.90
2023-05-22T05:16:30.106Z,99.90
2023-05-22T05:18:58.300Z,99.90
2023-05-22T05:21:27.928Z,99.90
2023-05-22T05:23:56.107Z,99.90
2023-05-22T05:26:27.023Z,99.90
2023-05-22T05:28:56.529Z,99.90
2023-05-22T05:31:24.882Z,99.90
2023-05-22T05:33:53.203Z,99.90
2023-05-22T05:36:21.275Z,99.90
2023-05-22T05:38:49.338Z,99.90
2023-05-22T05:41:22.060Z,99.90
2023-05-22T05:43:52.206Z,99.90
2023-05-22T05:46:20.561Z,99.90
2023-05-22T05:48:48.701Z,99.90
2023-05-22T05:51:16.986Z,99.90
2023-05-22T05:53:45.130Z,99.90
2023-05-22T05:56:13.147Z,99.90
2023-05-22T05:58:41.121Z,98.30
2023-05-22T06:01:11.769Z,98.00
2023-05-22T06:03:39.957Z,97.30
2023-05-22T06:06:08.431Z,96.20
2023-05-22T06:08:36.426Z,95.10
2023-05-22T06:11:04.666Z,94.60
2023-05-22T06:13:32.738Z,94.20
2023-05-22T06:16:02.981Z,94.20
2023-05-22T06:18:34.396Z,95.00
2023-05-22T06:21:02.414Z,94.40
2023-05-22T06:23:30.853Z,95.00
2023-05-22T06:25:58.921Z,94.80
2023-05-22T06:28:26.902Z,94.60
2023-05-22T06:30:54.899Z,94.00
2023-05-22T06:33:23.086Z,94.10
2023-05-22T06:35:52.628Z,94.30
2023-05-22T06:38:20.789Z,94.60
2023-05-22T06:40:48.893Z,94.00
2023-05-22T06:43:16.901Z,94.40
2023-05-22T06:45:45.530Z,94.50
2023-05-22T06:48:13.583Z,94.50
2023-05-22T06:50:41.666Z,94.40
2023-05-22T06:53:11.277Z,94.40
2023-05-22T06:55:39.307Z,94.50
2023-05-22T06:58:07.304Z,94.20
2023-05-22T07:00:35.323Z,94.00
2023-05-22T07:03:10.223Z,94.00
2023-05-22T07:05:38.255Z,93.60
2023-05-22T07:08:06.886Z,93.60
2023-05-22T07:10:36.358Z,93.40
2023-05-22T07:13:04.675Z,93.70
2023-05-22T07:15:32.719Z,93.80
2023-05-22T07:18:00.709Z,93.00
2023-05-22T07:20:28.928Z,93.70
2023-05-22T07:22:58.272Z,93.70
2023-05-22T07:25:26.263Z,94.10
2023-05-22T07:27:55.808Z,94.40
2023-05-22T07:30:23.859Z,93.90
2023-05-22T07:32:51.969Z,94.30
2023-05-22T07:35:19.968Z,94.20
2023-05-22T07:37:47.976Z,94.00
2023-05-22T07:40:16.071Z,94.30
2023-05-22T07:42:44.031Z,94.10
2023-05-22T07:45:13.588Z,94.10
2023-05-22T07:47:41.780Z,94.00
2023-05-22T07:50:10.492Z,93.90
2023-05-22T07:52:39.011Z,93.50
2023-05-22T07:55:08.387Z,93.50
2023-05-22T07:57:36.754Z,92.70
2023-05-22T08:00:13.924Z,93.20
2023-05-22T08:02:43.719Z,93.60
2023-05-22T08:05:12.667Z,93.40
2023-05-22T08:07:40.821Z,92.80
2023-05-22T08:10:15.681Z,93.30
2023-05-22T08:12:43.889Z,93.20
2023-05-22T08:15:12.674Z,93.00
2023-05-22T08:17:40.720Z,92.90
2023-05-22T08:20:13.233Z,93.40
2023-05-22T08:22:42.014Z,93.60
2023-05-22T08:25:10.707Z,93.20
2023-05-22T08:27:38.733Z,93.60
2023-05-22T08:30:09.563Z,94.20
2023-05-22T08:32:37.699Z,93.50
2023-05-22T08:35:06.285Z,94.10
2023-05-22T08:37:35.916Z,93.70
2023-05-22T08:40:05.663Z,93.50
2023-05-22T08:42:33.764Z,93.40
2023-05-22T08:45:01.838Z,93.10
2023-05-22T08:47:30.746Z,92.80
2023-05-22T08:50:00.293Z,93.70
2023-05-22T08:52:44.177Z,94.10
2023-05-22T08:55:12.257Z,93.40
2023-05-22T08:57:41.285Z,92.90
2023-05-22T09:00:10.268Z,92.90
2023-05-22T09:02:39.598Z,93.00
2023-05-22T09:05:09.189Z,93.30
2023-05-22T09:07:40.690Z,92.80
2023-05-22T09:10:09.418Z,93.00
2023-05-22T09:12:37.379Z,93.10
2023-05-22T09:15:11.125Z,93.30
2023-05-22T09:17:41.013Z,92.60
2023-05-22T09:20:13.411Z,91.70
2023-05-22T09:22:42.821Z,91.90
2023-05-22T09:25:10.823Z,92.10
2023-05-22T09:27:38.823Z,92.20
2023-05-22T09:30:10.522Z,91.80
2023-05-22T09:32:39.644Z,91.70
2023-05-22T09:35:08.297Z,91.90
2023-05-22T09:37:37.072Z,92.10
2023-05-22T09:40:08.574Z,91.80
2023-05-22T09:42:36.926Z,91.40
2023-05-22T09:45:06.454Z,91.50
2023-05-22T09:47:35.272Z,91.50
2023-05-22T09:50:07.248Z,91.60
2023-05-22T09:52:36.687Z,91.50
2023-05-22T09:55:08.631Z,91.40
2023-05-22T09:57:42.528Z,90.70
2023-05-22T10:00:15.137Z,90.30
2023-05-22T10:02:46.523Z,86.90
2023-05-22T10:05:21.396Z,90.20
2023-05-22T10:07:51.692Z,90.70
2023-05-22T10:10:23.691Z,89.40
2023-05-22T10:12:54.357Z,90.40
2023-05-22T10:15:22.854Z,90.20
2023-05-22T10:17:51.274Z,88.00
2023-05-22T10:20:19.947Z,89.90
2023-05-22T10:22:49.877Z,90.00
2023-05-22T10:25:21.811Z,89.00
2023-05-22T10:27:52.720Z,87.50
2023-05-22T10:30:25.707Z,85.80
2023-05-22T10:32:58.125Z,87.20
2023-05-22T10:35:33.775Z,86.80
2023-05-22T10:38:14.285Z,87.10
2023-05-22T10:40:47.316Z,87.90
2023-05-22T10:43:15.735Z,87.90
2023-05-22T10:45:47.501Z,86.80
2023-05-22T10:48:15.973Z,87.60
2023-05-22T10:50:53.539Z,87.10
2023-05-22T10:53:24.343Z,87.60
2023-05-22T10:55:54.852Z,86.70
2023-05-22T10:58:29.395Z,86.90
2023-05-22T11:01:12.705Z,88.20
2023-05-22T11:03:54.576Z,87.70
2023-05-22T11:06:37.702Z,86.90
2023-05-22T11:09:19.901Z,86.10
2023-05-22T11:12:09.944Z,85.30
2023-05-22T11:14:39.828Z,85.80
2023-05-22T11:17:08.391Z,88.00
2023-05-22T11:19:36.656Z,86.70
2023-05-22T11:22:06.004Z,87.80
2023-05-22T11:24:35.131Z,85.90
2023-05-22T11:27:05.713Z,86.80
2023-05-22T11:29:34.240Z,85.30
2023-05-22T11:32:04.567Z,86.20
2023-05-22T11:34:32.651Z,86.50
2023-05-22T11:37:01.006Z,85.90
2023-05-22T11:39:31.220Z,86.50
2023-05-22T11:41:59.455Z,86.10
2023-05-22T11:44:28.672Z,84.20
2023-05-22T11:46:56.713Z,83.80
2023-05-22T11:49:26.574Z,84.20
2023-05-22T11:51:54.670Z,84.10
2023-05-22T11:54:23.790Z,84.10
2023-05-22T11:56:51.814Z,84.10
2023-05-22T11:59:22.856Z,82.60
2023-05-22T12:01:51.359Z,83.00
2023-05-22T12:04:19.432Z,83.40
2023-05-22T12:06:49.115Z,83.60
2023-05-22T12:09:17.486Z,84.10
2023-05-22T12:11:47.902Z,82.10
2023-05-22T12:14:16.011Z,81.80
2023-05-22T12:16:45.189Z,80.90
2023-05-22T12:19:13.687Z,81.20
2023-05-22T12:21:43.224Z,81.00
2023-05-22T12:24:12.666Z,79.70
2023-05-22T12:26:40.740Z,80.10
2023-05-22T12:29:09.664Z,80.10
2023-05-22T12:31:38.603Z,82.40
2023-05-22T12:34:08.713Z,82.00
2023-05-22T12:36:39.365Z,81.40
2023-05-22T12:39:10.326Z,80.70
2023-05-22T12:41:39.983Z,80.30
2023-05-22T12:44:08.168Z,81.90
2023-05-22T12:46:36.497Z,80.00
2023-05-22T12:49:04.996Z,81.00
2023-05-22T12:51:33.747Z,77.30
2023-05-22T12:54:02.559Z,79.70
2023-05-22T12:56:31.044Z,78.20
2023-05-22T12:59:00.724Z,79.50
2023-05-22T13:01:28.900Z,79.00
2023-05-22T13:03:56.906Z,79.80
2023-05-22T13:06:25.038Z,80.40
2023-05-22T13:08:53.182Z,79.30
2023-05-22T13:11:23.342Z,78.50
2023-05-22T13:13:51.421Z,79.40
2023-05-22T13:16:21.234Z,77.70
2023-05-22T13:18:49.293Z,76.30
2023-05-22T13:21:17.487Z,78.40
2023-05-22T13:23:45.729Z,78.00
2023-05-22T13:26:13.791Z,78.30
2023-05-22T13:28:41.747Z,79.40
2023-05-22T13:31:09.724Z,77.80
2023-05-22T13:33:39.201Z,78.10
2023-05-22T13:36:07.675Z,77.30
2023-05-22T13:38:35.791Z,78.60
2023-05-22T13:41:03.908Z,78.10
2023-05-22T13:43:31.878Z,78.30
2023-05-22T13:45:59.907Z,79.10
2023-05-22T13:48:27.894Z,79.10
2023-05-22T13:50:57.222Z,79.40
2023-05-22T13:53:25.292Z,81.00
2023-05-22T13:55:54.613Z,79.70
2023-05-22T13:58:22.711Z,79.30
2023-05-22T14:00:50.883Z,79.30
2023-05-22T14:03:20.037Z,77.70
2023-05-22T14:05:48.146Z,78.90
2023-05-22T14:08:17.523Z,78.20
2023-05-22T14:10:45.806Z,79.20
2023-05-22T14:13:15.156Z,79.70
2023-05-22T14:15:43.268Z,79.30
2023-05-22T14:18:11.563Z,80.50
2023-05-22T14:20:39.674Z,80.30
2023-05-22T14:23:07.881Z,78.30
2023-05-22T14:25:37.305Z,79.80
2023-05-22T14:28:05.351Z,79.60
2023-05-22T14:30:33.480Z,79.20
2023-05-22T14:33:01.559Z,79.70
2023-05-22T14:35:29.668Z,79.70
2023-05-22T14:37:57.690Z,78.80
2023-05-22T14:40:25.775Z,80.40
2023-05-22T14:42:55.192Z,79.10
2023-05-22T14:45:23.554Z,79.20
2023-05-22T14:47:52.191Z,80.30
2023-05-22T14:50:21.708Z,79.80
2023-05-22T14:52:50.313Z,79.10
2023-05-22T14:55:18.713Z,80.10
2023-05-22T14:57:46.864Z,80.60
2023-05-22T15:00:17.103Z,80.70
2023-05-22T15:02:45.100Z,80.40
2023-05-22T15:05:13.167Z,79.80
2023-05-22T15:07:44.725Z,79.70
2023-05-22T15:10:13.941Z,80.00
2023-05-22T15:12:41.925Z,80.30
2023-05-22T15:15:10.839Z,80.10
2023-05-22T15:17:42.630Z,79.60
2023-05-22T15:20:11.973Z,80.30
2023-05-22T15:22:40.214Z,78.80
2023-05-22T15:27:40.809Z,79.00
2023-05-22T15:30:10.179Z,77.20
2023-05-22T15:32:40.159Z,78.60
2023-05-22T15:35:09.134Z,78.50
2023-05-22T15:37:37.333Z,78.40
2023-05-22T15:40:06.975Z,78.90
2023-05-22T15:42:35.171Z,78.20
2023-05-22T15:45:03.245Z,79.60
2023-05-22T15:47:31.293Z,80.80
2023-05-22T15:50:00.693Z,80.60
2023-05-22T15:52:28.779Z,81.20
2023-05-22T15:54:58.714Z,81.40
2023-05-22T15:57:28.625Z,81.10
2023-05-22T15:59:57.005Z,81.40
2023-05-22T16:02:25.436Z,82.00
2023-05-22T16:04:53.606Z,81.40
2023-05-22T16:07:23.179Z,81.20
2023-05-22T16:09:51.201Z,81.60
2023-05-22T16:12:19.888Z,80.40
2023-05-22T16:14:47.951Z,81.80
2023-05-22T16:17:16.047Z,81.90
2023-05-22T16:19:44.048Z,81.30
2023-05-22T16:22:12.235Z,81.60
2023-05-22T16:24:41.572Z,80.80
2023-05-22T16:27:09.632Z,81.50
2023-05-22T16:29:37.709Z,81.30
2023-05-22T16:32:06.225Z,82.40
2023-05-22T16:34:34.794Z,81.90
2023-05-22T16:37:02.809Z,82.20
2023-05-22T16:39:30.878Z,82.10
2023-05-22T16:42:00.196Z,81.20
2023-05-22T16:44:31.329Z,82.00
2023-05-22T16:46:59.356Z,82.60
2023-05-22T16:49:27.988Z,82.50
2023-05-22T16:51:56.461Z,83.00
2023-05-22T16:54:24.564Z,83.50
2023-05-22T16:56:52.786Z,82.90
2023-05-22T16:59:22.186Z,81.80
2023-05-22T17:01:50.390Z,81.90
2023-05-22T17:04:20.605Z,82.20
2023-05-22T17:06:49.445Z,81.70
2023-05-22T17:09:17.465Z,81.90
2023-05-22T17:11:46.047Z,81.70
2023-05-22T17:14:14.072Z,82.80
2023-05-22T17:16:43.650Z,82.70
2023-05-22T17:19:11.734Z,82.40
2023-05-22T17:21:39.771Z,82.80
2023-05-22T17:24:11.540Z,83.20
2023-05-22T17:26:41.442Z,82.80
2023-05-22T17:29:10.870Z,82.80
2023-05-22T17:31:39.690Z,82.80
2023-05-22T17:34:09.192Z,83.00
2023-05-22T17:36:37.408Z,82.80
2023-05-22T17:39:05.614Z,82.60
2023-05-22T17:41:33.689Z,82.50
2023-05-22T17:44:02.354Z,82.60
2023-05-22T17:46:30.545Z,82.40
2023-05-22T17:48:58.717Z,82.60
2023-05-22T17:51:28.058Z,82.70
2023-05-22T17:53:56.773Z,83.00
2023-05-22T17:56:24.885Z,83.10
2023-05-22T17:58:53.202Z,82.90
2023-05-22T18:01:21.509Z,83.60
2023-05-22T18:03:50.071Z,83.30
2023-05-22T18:06:18.482Z,83.40
2023-05-22T18:08:48.275Z,84.20
2023-05-22T18:11:16.812Z,84.50
2023-05-22T18:13:44.841Z,84.50
2023-05-22T18:16:13.167Z,84.40
2023-05-22T18:18:41.363Z,84.50
2023-05-22T18:21:09.382Z,84.30
2023-05-22T18:23:37.577Z,84.80
2023-05-22T18:26:07.022Z,85.10
2023-05-22T18:28:35.025Z,85.50
2023-05-22T18:31:04.007Z,85.30
2023-05-22T18:33:33.367Z,86.10
2023-05-22T18:36:01.731Z,87.10
2023-05-22T18:38:29.979Z,87.90
2023-05-22T18:40:58.215Z,88.20
2023-05-22T18:43:28.238Z,88.80
2023-05-22T18:45:57.694Z,90.10
2023-05-22T18:48:27.111Z,90.40
2023-05-22T18:50:57.223Z,90.70
2023-05-22T18:53:26.094Z,91.00
2023-05-22T18:55:54.719Z,91.20
2023-05-22T18:58:22.816Z,91.50
2023-05-22T19:00:55.291Z,91.70
2023-05-22T19:03:23.486Z,91.90
2023-05-22T19:05:51.575Z,92.10
2023-05-22T19:08:20.270Z,92.20
2023-05-22T19:10:48.466Z,92.30
2023-05-22T19:13:16.773Z,92.40
2023-05-22T19:15:45.006Z,92.60
2023-05-22T19:18:14.366Z,92.50
2023-05-22T19:20:42.546Z,92.70
2023-05-22T19:23:12.134Z,92.80
2023-05-22T19:25:40.123Z,92.80
2023-05-22T19:28:11.413Z,92.90
2023-05-22T19:30:39.894Z,93.00
2023-05-22T19:33:09.019Z,93.10
2023-05-22T19:35:38.746Z,93.20
2023-05-22T19:38:06.898Z,93.20
2023-05-22T19:40:34.905Z,93.20
2023-05-22T19:43:03.244Z,93.30
2023-05-22T19:45:31.233Z,93.30
2023-05-22T19:47:59.262Z,93.40
2023-05-22T19:50:27.313Z,93.40
2023-05-22T19:52:56.769Z,93.50
2023-05-22T19:55:25.693Z,93.70
2023-05-22T19:57:53.720Z,93.70
2023-05-22T20:00:22.623Z,93.70
2023-05-22T20:02:54.512Z,93.70
2023-05-22T20:05:22.632Z,93.80
2023-05-22T20:07:51.571Z,94.00
2023-05-22T20:10:21.662Z,94.10
2023-05-22T20:12:50.168Z,94.00
2023-05-22T20:15:18.148Z,94.10
2023-05-22T20:17:47.528Z,94.10
2023-05-22T20:20:15.791Z,94.20
2023-05-22T20:22:43.910Z,94.10
2023-05-22T20:25:12.567Z,94.00
2023-05-22T20:27:41.894Z,94.10
2023-05-22T20:30:12.521Z,94.30
2023-05-22T20:32:42.486Z,94.60
2023-05-22T20:35:11.423Z,94.70
2023-05-22T20:37:41.535Z,94.70
2023-05-22T20:40:10.853Z,94.90
2023-05-22T20:42:39.199Z,94.90
2023-05-22T20:45:12.153Z,95.00
2023-05-22T20:47:44.080Z,95.00
2023-05-22T20:50:12.645Z,95.00
2023-05-22T20:52:40.701Z,95.10
2023-05-22T20:55:09.438Z,95.20
2023-05-22T20:57:37.490Z,95.20
2023-05-22T21:00:08.963Z,95.40
2023-05-22T21:02:38.871Z,95.40
2023-05-22T21:05:07.520Z,95.40
2023-05-22T21:07:35.506Z,95.50
2023-05-22T21:10:03.734Z,95.40
2023-05-22T21:12:31.713Z,95.50
2023-05-22T21:14:59.683Z,95.40
2023-05-22T21:17:27.811Z,95.30
2023-05-22T21:19:57.206Z,94.30
2023-05-22T21:22:25.257Z,94.90
2023-05-22T21:24:53.282Z,94.90
2023-05-22T21:27:21.416Z,95.30
2023-05-22T21:29:49.577Z,95.30
2023-05-22T21:32:17.665Z,96.30
2023-05-22T21:34:46.657Z,95.90
2023-05-22T21:37:16.077Z,96.20
2023-05-22T21:39:44.070Z,96.40
2023-05-22T21:42:12.070Z,96.30
2023-05-22T21:44:40.119Z,96.50
2023-05-22T21:47:08.125Z,96.40
2023-05-22T21:49:38.735Z,96.50
2023-05-22T21:52:07.541Z,96.30
2023-05-22T21:54:36.874Z,96.70
2023-05-22T21:57:05.039Z,96.60
2023-05-22T21:59:33.157Z,96.70
2023-05-22T22:02:01.479Z,96.80
2023-05-22T22:04:29.621Z,97.00
2023-05-22T22:06:57.605Z,97.00
2023-05-22T22:09:25.671Z,97.00
2023-05-22T22:11:55.039Z,97.20
2023-05-22T22:14:23.815Z,97.20
2023-05-22T22:16:54.192Z,97.40
2023-05-22T22:19:22.526Z,97.40
2023-05-22T22:21:51.168Z,97.50
2023-05-22T22:24:19.250Z,97.40
2023-05-22T22:26:47.770Z,97.30
2023-05-22T22:29:17.565Z,97.40
2023-05-22T22:31:45.792Z,97.40
2023-05-22T22:34:13.869Z,97.10
2023-05-22T22:36:41.941Z,97.20
2023-05-22T22:39:10.006Z,97.30
2023-05-22T22:41:37.990Z,97.40
2023-05-22T22:44:06.024Z,97.90
2023-05-22T22:46:35.706Z,98.10
2023-05-22T22:49:03.768Z,98.10
2023-05-22T22:51:31.813Z,98.10
2023-05-22T22:53:59.878Z,98.30
2023-05-22T22:56:29.363Z,98.60
2023-05-22T22:58:57.680Z,98.80
2023-05-22T23:01:25.875Z,99.00
2023-05-22T23:03:55.363Z,99.40
2023-05-22T23:06:23.816Z,99.50
2023-05-22T23:08:51.864Z,99.40
2023-05-22T23:11:19.972Z,99.60
2023-05-22T23:13:48.061Z,99.60
2023-05-22T23:16:16.266Z,99.50
2023-05-22T23:18:44.643Z,99.70
2023-05-22T23:21:14.024Z,99.60
2023-05-22T23:23:42.015Z,99.80
2023-05-22T23:26:10.021Z,99.70
2023-05-22T23:28:38.279Z,99.50
2023-05-22T23:31:06.369Z,99.50
2023-05-22T23:33:34.401Z,99.60
2023-05-22T23:36:02.439Z,99.80
2023-05-22T23:38:31.796Z,99.90
2023-05-22T23:40:59.958Z,99.90
2023-05-22T23:43:27.961Z,99.40
2023-05-22T23:45:55.973Z,99.30
2023-05-22T23:48:23.970Z,99.40
2023-05-22T23:50:51.942Z,99.50
2023-05-22T23:53:19.965Z,99.10
2023-05-22T23:55:49.409Z,99.10
2023-05-22T23:58:17.426Z,98.90
